< < Back
Terminal Aerodrome Forecast


Current Version              Previous Versions:   1  2  3  4  5  6  7  8  9  

Terminal Aerodrome Forecast

965
FTUS44 KOHX 061722
TAFBNA
TAF
KBNA 061722Z 0618/0718 VRB04KT P6SM SCT090 BKN250=

Latest METAR

371
SAUS70 KWBC 061800 RRD
MTRBNA
METAR KBNA 061753Z 00000KT 10SM BKN200 BKN250 11/M09 A3036 RMK AO2
SLP282 T01111089 10117 21028 58016


USA.gov is the U.S. government's official web portal to all federal, state and local government web resources and services.